createdAt,value
2023-05-14T00:02:01.165Z,101305.77
2023-05-14T00:04:33.549Z,101306.74
2023-05-14T00:07:05.835Z,101307.58
2023-05-14T00:09:37.874Z,101308.54
2023-05-14T00:12:10.980Z,101314.11
2023-05-14T00:14:44.063Z,101310.71
2023-05-14T00:17:16.059Z,101308.52
2023-05-14T00:19:48.004Z,101306.45
2023-05-14T00:22:20.084Z,101300.45
2023-05-14T00:24:52.063Z,101297.73
2023-05-14T00:27:24.088Z,101295.83
2023-05-14T00:29:56.014Z,101296.98
2023-05-14T00:32:27.931Z,101290.98
2023-05-14T00:35:00.493Z,101294.98
2023-05-14T00:37:33.688Z,101289.02
2023-05-14T00:40:06.936Z,101292.52
2023-05-14T00:42:38.885Z,101290.68
2023-05-14T00:45:12.589Z,101287.09
2023-05-14T00:47:44.598Z,101289.31
2023-05-14T00:50:17.884Z,101288.14
2023-05-14T00:52:50.055Z,101293.63
2023-05-14T00:55:23.094Z,101291.36
2023-05-14T00:57:56.184Z,101295.54
2023-05-14T01:00:28.611Z,101296.21
2023-05-14T01:03:02.690Z,101297.70
2023-05-14T01:05:34.679Z,101293.17
2023-05-14T01:08:11.164Z,101294.80
2023-05-14T01:10:52.553Z,101290.91
2023-05-14T01:13:38.721Z,101288.23
2023-05-14T01:16:14.184Z,101288.35
2023-05-14T01:18:48.021Z,101288.52
2023-05-14T01:21:38.302Z,101290.35
2023-05-14T01:24:10.846Z,101288.30
2023-05-14T01:26:42.807Z,101284.06
2023-05-14T01:29:20.627Z,101283.87
2023-05-14T01:31:54.471Z,101282.75
2023-05-14T01:34:27.325Z,101279.60
2023-05-14T01:36:59.865Z,101282.47
2023-05-14T01:39:32.588Z,101281.13
2023-05-14T01:42:08.242Z,101281.35
2023-05-14T01:44:40.164Z,101279.44
2023-05-14T01:47:12.426Z,101276.52
2023-05-14T01:49:44.269Z,101276.12
2023-05-14T01:52:16.468Z,101275.98
2023-05-14T01:54:48.834Z,101277.60
2023-05-14T01:57:21.689Z,101271.75
2023-05-14T01:59:54.205Z,101271.95
2023-05-14T02:02:26.762Z,101267.72
2023-05-14T02:04:58.864Z,101266.10
2023-05-14T02:07:31.245Z,101260.54
2023-05-14T02:10:03.305Z,101265.08
2023-05-14T02:12:36.232Z,101268.49
2023-05-14T02:15:11.215Z,101268.29
2023-05-14T02:17:46.867Z,101271.65
2023-05-14T02:20:19.869Z,101268.21
2023-05-14T02:22:52.088Z,101263.40
2023-05-14T02:25:24.000Z,101264.35
2023-05-14T02:27:56.961Z,101258.15
2023-05-14T02:30:30.217Z,101257.82
2023-05-14T02:33:02.227Z,101258.47
2023-05-14T02:35:35.340Z,101260.19
2023-05-14T02:38:07.764Z,101256.30
2023-05-14T02:40:40.859Z,101253.48
2023-05-14T02:43:12.716Z,101253.70
2023-05-14T02:45:44.638Z,101256.02
2023-05-14T02:48:16.771Z,101254.83
2023-05-14T02:50:49.192Z,101255.02
2023-05-14T02:53:21.995Z,101253.17
2023-05-14T02:55:54.276Z,101251.95
2023-05-14T02:58:28.369Z,101255.58
2023-05-14T03:01:00.792Z,101258.27
2023-05-14T03:03:36.673Z,101258.34
2023-05-14T03:06:09.605Z,101255.11
2023-05-14T03:08:41.739Z,101258.48
2023-05-14T03:11:17.123Z,101257.90
2023-05-14T03:13:49.597Z,101260.15
2023-05-14T03:16:21.720Z,101258.92
2023-05-14T03:18:53.966Z,101261.70
2023-05-14T03:21:27.501Z,101261.47
2023-05-14T03:23:59.644Z,101255.99
2023-05-14T03:26:31.527Z,101255.95
2023-05-14T03:29:04.001Z,101254.10
2023-05-14T03:31:36.080Z,101253.09
2023-05-14T03:34:14.770Z,101254.27
2023-05-14T03:36:46.761Z,101254.77
2023-05-14T03:39:19.968Z,101253.88
2023-05-14T03:41:52.038Z,101254.91
2023-05-14T03:44:24.089Z,101252.23
2023-05-14T03:46:55.965Z,101251.47
2023-05-14T03:49:28.323Z,101247.25
2023-05-14T03:52:00.521Z,101249.77
2023-05-14T03:54:32.739Z,101248.48
2023-05-14T03:57:04.859Z,101249.80
2023-05-14T03:59:36.910Z,101244.52
2023-05-14T04:02:08.975Z,101244.35
2023-05-14T04:04:41.292Z,101239.34
2023-05-14T04:07:13.332Z,101240.08
2023-05-14T04:09:45.206Z,101239.21
2023-05-14T04:12:17.039Z,101240.86
2023-05-14T04:14:48.955Z,101240.15
2023-05-14T04:17:21.103Z,101244.44
2023-05-14T04:19:53.519Z,101241.83
2023-05-14T04:22:25.576Z,101241.35
2023-05-14T04:24:57.686Z,101238.11
2023-05-14T04:27:29.738Z,101240.84
2023-05-14T04:30:01.954Z,101241.15
2023-05-14T04:32:35.940Z,101242.79
2023-05-14T04:35:07.151Z,101239.52
2023-05-14T04:37:39.153Z,101238.31
2023-05-14T04:40:13.122Z,101242.27
2023-05-14T04:42:45.106Z,101243.65
2023-05-14T04:45:17.730Z,101242.40
2023-05-14T04:47:51.591Z,101241.61
2023-05-14T04:50:23.652Z,101242.95
2023-05-14T04:52:56.010Z,101242.51
2023-05-14T04:55:28.153Z,101244.56
2023-05-14T04:58:00.763Z,101242.73
2023-05-14T05:00:33.644Z,101243.55
2023-05-14T05:03:05.765Z,101239.41
2023-05-14T05:05:38.082Z,101240.11
2023-05-14T05:08:11.536Z,101240.27
2023-05-14T05:10:45.355Z,101239.16
2023-05-14T05:13:17.287Z,101233.66
2023-05-14T05:15:49.699Z,101236.30
2023-05-14T05:18:21.758Z,101239.04
2023-05-14T05:20:53.860Z,101236.91
2023-05-14T05:23:26.011Z,101232.40
2023-05-14T05:25:58.182Z,101231.52
2023-05-14T05:28:30.058Z,101231.88
2023-05-14T05:31:02.572Z,101233.41
2023-05-14T05:33:35.117Z,101233.67
2023-05-14T05:36:07.468Z,101228.55
2023-05-14T05:38:39.649Z,101229.13
2023-05-14T05:41:11.666Z,101227.92
2023-05-14T05:43:43.589Z,101232.34
2023-05-14T05:46:15.654Z,101229.41
2023-05-14T05:48:47.569Z,101233.63
2023-05-14T05:51:20.875Z,101228.61
2023-05-14T05:53:52.937Z,101231.73
2023-05-14T05:56:25.110Z,101231.72
2023-05-14T05:58:57.037Z,101236.00
2023-05-14T06:01:29.677Z,101232.19
2023-05-14T06:04:02.163Z,101228.71
2023-05-14T06:06:35.639Z,101230.03
2023-05-14T06:09:09.198Z,101224.96
2023-05-14T06:11:40.377Z,101221.91
2023-05-14T06:14:12.426Z,101223.12
2023-05-14T06:16:44.549Z,101224.38
2023-05-14T06:19:17.446Z,101220.43
2023-05-14T06:21:50.371Z,101221.30
2023-05-14T06:24:22.619Z,101220.54
2023-05-14T06:26:54.784Z,101225.06
2023-05-14T06:29:27.080Z,101222.97
2023-05-14T06:32:01.996Z,101220.27
2023-05-14T06:34:34.844Z,101222.39
2023-05-14T06:37:07.648Z,101219.71
2023-05-14T06:39:39.803Z,101220.48
2023-05-14T06:42:12.080Z,101222.33
2023-05-14T06:44:44.076Z,101220.13
2023-05-14T06:47:16.092Z,101217.47
2023-05-14T06:49:48.667Z,101216.81
2023-05-14T06:52:20.902Z,101214.34
2023-05-14T06:54:52.893Z,101208.57
2023-05-14T06:57:25.326Z,101207.32
2023-05-14T06:59:57.546Z,101208.24
2023-05-14T07:02:29.844Z,101208.79
2023-05-14T07:05:01.999Z,101206.60
2023-05-14T07:07:34.097Z,101207.27
2023-05-14T07:10:08.184Z,101203.52
2023-05-14T07:12:41.228Z,101204.98
2023-05-14T07:15:15.015Z,101203.27
2023-05-14T07:17:45.924Z,101202.41
2023-05-14T07:20:17.982Z,101198.69
2023-05-14T07:22:50.212Z,101203.47
2023-05-14T07:25:22.569Z,101199.22
2023-05-14T07:27:55.229Z,101201.01
2023-05-14T07:30:27.412Z,101199.45
2023-05-14T07:32:59.725Z,101193.77
2023-05-14T07:35:31.870Z,101192.55
2023-05-14T07:38:05.944Z,101190.19
2023-05-14T07:40:37.806Z,101192.04
2023-05-14T07:43:09.869Z,101188.91
2023-05-14T07:45:42.161Z,101187.13
2023-05-14T07:48:14.329Z,101176.61
2023-05-14T07:50:46.606Z,101176.16
2023-05-14T07:53:18.962Z,101175.66
2023-05-14T07:55:52.442Z,101174.13
2023-05-14T07:58:25.330Z,101168.27
2023-05-14T08:00:57.850Z,101167.79
2023-05-14T08:03:32.515Z,101166.49
2023-05-14T08:06:06.533Z,101163.49
2023-05-14T08:08:39.506Z,101161.44
2023-05-14T08:11:11.896Z,101156.77
2023-05-14T08:13:44.544Z,101157.00
2023-05-14T08:16:16.509Z,101151.03
2023-05-14T08:18:48.694Z,101146.73
2023-05-14T08:21:20.833Z,101146.02
2023-05-14T08:23:53.243Z,101140.39
2023-05-14T08:26:26.059Z,101133.73
2023-05-14T08:28:59.156Z,101129.30
2023-05-14T08:31:31.208Z,101131.70
2023-05-14T08:34:03.806Z,101132.13
2023-05-14T08:36:36.789Z,101126.56
2023-05-14T08:39:09.008Z,101129.45
2023-05-14T08:41:41.936Z,101124.65
2023-05-14T08:44:20.024Z,101128.17
2023-05-14T08:46:52.663Z,101125.59
2023-05-14T08:49:30.170Z,101124.05
2023-05-14T08:52:02.658Z,101126.59
2023-05-14T08:54:36.276Z,101125.90
2023-05-14T08:57:07.142Z,101126.23
2023-05-14T08:59:39.644Z,101120.80
2023-05-14T09:02:12.765Z,101126.30
2023-05-14T09:04:45.383Z,101119.15
2023-05-14T09:07:18.021Z,101114.15
2023-05-14T09:09:50.618Z,101115.48
2023-05-14T09:12:23.769Z,101112.69
2023-05-14T09:14:58.205Z,101109.15
2023-05-14T09:17:30.736Z,101105.92
2023-05-14T09:20:02.937Z,101098.38
2023-05-14T09:22:36.360Z,101099.17
2023-05-14T09:25:12.280Z,101096.88
2023-05-14T09:27:46.799Z,101096.81
2023-05-14T09:30:19.199Z,101099.77
2023-05-14T09:32:51.179Z,101102.83
2023-05-14T09:35:25.188Z,101101.46
2023-05-14T09:37:58.013Z,101096.44
2023-05-14T09:40:30.241Z,101100.61
2023-05-14T09:43:02.811Z,101100.31
2023-05-14T09:45:35.009Z,101097.27
2023-05-14T09:48:08.077Z,101091.33
2023-05-14T09:50:46.696Z,101090.56
2023-05-14T09:53:18.805Z,101084.98
2023-05-14T09:55:51.181Z,101090.14
2023-05-14T09:58:23.107Z,101084.16
2023-05-14T10:00:55.616Z,101075.59
2023-05-14T10:03:29.109Z,101079.09
2023-05-14T10:06:04.145Z,101074.56
2023-05-14T10:08:37.528Z,101071.02
2023-05-14T10:11:12.486Z,101069.44
2023-05-14T10:13:51.048Z,101063.67
2023-05-14T10:16:29.622Z,101066.08
2023-05-14T10:19:06.727Z,101065.48
2023-05-14T10:21:40.592Z,101067.20
2023-05-14T10:24:13.076Z,101066.60
2023-05-14T10:26:45.888Z,101061.15
2023-05-14T10:29:18.275Z,101057.29
2023-05-14T10:31:54.829Z,101057.90
2023-05-14T10:34:38.824Z,101053.84
2023-05-14T10:37:12.959Z,101046.61
2023-05-14T10:39:47.085Z,101049.01
2023-05-14T10:42:20.737Z,101047.93
2023-05-14T10:44:56.036Z,101046.34
2023-05-14T10:47:30.158Z,101041.99
2023-05-14T10:50:06.196Z,101041.86
2023-05-14T10:52:38.383Z,101031.89
2023-05-14T10:55:13.754Z,101026.71
2023-05-14T10:57:47.882Z,101029.81
2023-05-14T11:00:21.787Z,101027.62
2023-05-14T11:02:58.913Z,101031.62
2023-05-14T11:05:31.072Z,101025.84
2023-05-14T11:08:06.218Z,101018.47
2023-05-14T11:10:39.090Z,101007.44
2023-05-14T11:13:11.717Z,100996.41
2023-05-14T11:15:47.396Z,100998.25
2023-05-14T11:18:31.206Z,100988.29
2023-05-14T11:21:03.424Z,100991.59
2023-05-14T11:23:36.156Z,100986.77
2023-05-14T11:26:08.757Z,100979.46
2023-05-14T11:28:41.778Z,100972.63
2023-05-14T11:31:14.017Z,100966.63
2023-05-14T11:33:47.421Z,100968.38
2023-05-14T11:36:19.766Z,100975.66
2023-05-14T11:38:52.963Z,100967.51
2023-05-14T11:41:26.357Z,100963.86
2023-05-14T11:43:56.694Z,100954.02
2023-05-14T11:46:30.215Z,100946.20
2023-05-14T11:49:02.452Z,100943.59
2023-05-14T11:51:34.857Z,100935.34
2023-05-14T11:54:07.259Z,100929.86
2023-05-14T11:56:39.577Z,100920.73
2023-05-14T11:59:15.361Z,100907.31
2023-05-14T12:01:50.699Z,100906.05
2023-05-14T12:04:23.435Z,100912.73
2023-05-14T12:06:56.337Z,100906.00
2023-05-14T12:09:28.778Z,100906.15
2023-05-14T12:12:00.623Z,100897.34
2023-05-14T12:14:32.714Z,100892.83
2023-05-14T12:17:04.855Z,100889.89
2023-05-14T12:19:43.153Z,100889.42
2023-05-14T12:22:18.803Z,100888.74
2023-05-14T12:24:57.236Z,100878.01
2023-05-14T12:27:31.179Z,100876.21
2023-05-14T12:30:19.863Z,100879.58
2023-05-14T12:32:53.916Z,100881.31
2023-05-14T12:35:26.252Z,100875.21
2023-05-14T12:37:59.225Z,100873.68
2023-05-14T12:40:32.487Z,100870.77
2023-05-14T12:43:07.397Z,100864.09
2023-05-14T12:45:42.732Z,100864.57
2023-05-14T12:48:16.621Z,100868.95
2023-05-14T12:50:50.590Z,100859.39
2023-05-14T12:53:22.818Z,100863.30
2023-05-14T12:55:55.278Z,100854.80
2023-05-14T12:58:27.853Z,100853.58
2023-05-14T13:01:00.038Z,100855.77
2023-05-14T13:03:38.083Z,100855.03
2023-05-14T13:06:10.995Z,100843.25
2023-05-14T13:08:44.402Z,100845.02
2023-05-14T13:11:16.465Z,100847.70
2023-05-14T13:13:48.524Z,100848.02
2023-05-14T13:16:20.725Z,100845.55
2023-05-14T13:18:52.832Z,100844.61
2023-05-14T13:21:24.821Z,100840.86
2023-05-14T13:23:57.513Z,100832.88
2023-05-14T13:26:29.610Z,100832.77
2023-05-14T13:29:02.990Z,100839.23
2023-05-14T13:31:35.437Z,100836.85
2023-05-14T13:34:09.016Z,100833.15
2023-05-14T13:36:44.058Z,100828.70
2023-05-14T13:39:16.269Z,100825.95
2023-05-14T13:41:48.479Z,100815.95
2023-05-14T13:44:20.633Z,100815.44
2023-05-14T13:46:53.099Z,100817.63
2023-05-14T13:49:25.410Z,100811.91
2023-05-14T13:52:00.201Z,100810.21
2023-05-14T13:54:33.086Z,100799.02
2023-05-14T13:57:05.229Z,100803.30
2023-05-14T13:59:38.235Z,100801.49
2023-05-14T14:02:10.905Z,100801.04
2023-05-14T14:04:43.066Z,100795.36
2023-05-14T14:07:15.283Z,100784.84
2023-05-14T14:09:48.233Z,100778.44
2023-05-14T14:12:21.629Z,100770.78
2023-05-14T14:14:52.320Z,100767.92
2023-05-14T14:17:25.191Z,100767.83
2023-05-14T14:19:57.489Z,100764.22
2023-05-14T14:22:29.522Z,100759.88
2023-05-14T14:25:01.654Z,100754.86
2023-05-14T14:27:36.112Z,100753.65
2023-05-14T14:30:15.788Z,100747.85
2023-05-14T14:32:48.440Z,100746.21
2023-05-14T14:35:21.450Z,100744.58
2023-05-14T14:37:56.004Z,100739.78
2023-05-14T14:40:29.829Z,100730.77
2023-05-14T14:43:02.492Z,100724.11
2023-05-14T14:45:36.969Z,100723.48
2023-05-14T14:48:31.575Z,100726.03
2023-05-14T14:51:04.198Z,100726.62
2023-05-14T14:53:37.338Z,100723.96
2023-05-14T14:56:09.918Z,100728.85
2023-05-14T14:58:42.704Z,100727.73
2023-05-14T15:01:14.946Z,100727.61
2023-05-14T15:03:48.658Z,100722.08
2023-05-14T15:06:21.098Z,100725.39
2023-05-14T15:08:53.010Z,100715.52
2023-05-14T15:11:25.308Z,100716.38
2023-05-14T15:13:57.138Z,100712.01
2023-05-14T15:16:29.120Z,100709.80
2023-05-14T15:19:01.475Z,100704.48
2023-05-14T15:21:33.555Z,100709.64
2023-05-14T15:24:06.388Z,100715.33
2023-05-14T15:26:39.464Z,100713.88
2023-05-14T15:29:12.534Z,100708.73
2023-05-14T15:31:44.936Z,100707.48
2023-05-14T15:34:17.128Z,100700.59
2023-05-14T15:36:49.146Z,100698.14
2023-05-14T15:39:21.620Z,100699.02
2023-05-14T15:41:55.057Z,100699.45
2023-05-14T15:44:26.547Z,100692.37
2023-05-14T15:46:59.245Z,100687.83
2023-05-14T15:49:32.019Z,100683.29
2023-05-14T15:52:04.281Z,100688.57
2023-05-14T15:54:37.142Z,100697.45
2023-05-14T15:57:09.267Z,100698.91
2023-05-14T15:59:41.436Z,100696.55
2023-05-14T16:02:13.751Z,100693.95
2023-05-14T16:04:46.356Z,100689.05
2023-05-14T16:07:18.651Z,100683.94
2023-05-14T16:09:50.975Z,100680.20
2023-05-14T16:12:22.911Z,100676.85
2023-05-14T16:14:57.098Z,100678.05
2023-05-14T16:17:30.598Z,100683.44
2023-05-14T16:20:02.026Z,100675.84
2023-05-14T16:22:34.794Z,100679.29
2023-05-14T16:25:09.107Z,100673.55
2023-05-14T16:27:41.657Z,100673.41
2023-05-14T16:30:15.224Z,100674.83
2023-05-14T16:32:48.642Z,100672.20
2023-05-14T16:35:20.731Z,100656.42
2023-05-14T16:37:57.106Z,100645.70
2023-05-14T16:40:29.009Z,100651.80
2023-05-14T16:43:03.645Z,100653.69
2023-05-14T16:45:37.442Z,100650.83
2023-05-14T16:48:10.044Z,100645.21
2023-05-14T16:50:42.467Z,100648.17
2023-05-14T16:53:14.930Z,100643.87
2023-05-14T16:55:47.246Z,100648.27
2023-05-14T16:58:19.143Z,100643.87
2023-05-14T17:00:51.281Z,100644.27
2023-05-14T17:03:23.995Z,100639.96
2023-05-14T17:05:56.088Z,100641.35
2023-05-14T17:08:33.034Z,100641.02
2023-05-14T17:11:06.180Z,100635.52
2023-05-14T17:13:37.398Z,100635.33
2023-05-14T17:16:17.874Z,100632.63
2023-05-14T17:18:49.164Z,100633.93
2023-05-14T17:21:23.211Z,100632.17
2023-05-14T17:23:55.072Z,100630.58
2023-05-14T17:26:27.055Z,100630.09
2023-05-14T17:29:02.461Z,100631.93
2023-05-14T17:31:35.024Z,100636.84
2023-05-14T17:34:08.307Z,100634.10
2023-05-14T17:36:40.851Z,100634.52
2023-05-14T17:39:12.819Z,100637.02
2023-05-14T17:41:44.881Z,100639.48
2023-05-14T17:44:16.955Z,100634.95
2023-05-14T17:46:52.232Z,100632.30
2023-05-14T17:49:26.822Z,100634.40
2023-05-14T17:51:58.982Z,100632.64
2023-05-14T17:54:30.908Z,100631.63
2023-05-14T17:57:03.046Z,100628.41
2023-05-14T17:59:35.364Z,100630.26
2023-05-14T18:02:08.225Z,100630.67
2023-05-14T18:04:40.306Z,100632.64
2023-05-14T18:07:13.578Z,100627.57
2023-05-14T18:09:45.879Z,100625.64
2023-05-14T18:12:18.753Z,100630.11
2023-05-14T18:14:50.762Z,100631.44
2023-05-14T18:17:24.864Z,100628.80
2023-05-14T18:19:56.953Z,100628.90
2023-05-14T18:22:28.879Z,100625.14
2023-05-14T18:25:01.339Z,100627.95
2023-05-14T18:27:45.581Z,100627.34
2023-05-14T18:30:18.511Z,100627.92
2023-05-14T18:32:50.909Z,100631.02
2023-05-14T18:35:23.042Z,100635.79
2023-05-14T18:37:55.218Z,100636.02
2023-05-14T18:40:27.179Z,100633.50
2023-05-14T18:43:01.506Z,100636.02
2023-05-14T18:45:34.552Z,100630.16
2023-05-14T18:48:09.312Z,100631.82
2023-05-14T18:50:41.342Z,100628.44
2023-05-14T18:53:17.104Z,100632.50
2023-05-14T18:55:52.598Z,100634.27
2023-05-14T18:58:24.703Z,100632.33
2023-05-14T19:00:59.127Z,100634.63
2023-05-14T19:03:31.270Z,100634.17
2023-05-14T19:06:03.725Z,100635.42
2023-05-14T19:08:42.987Z,100632.83
2023-05-14T19:11:14.920Z,100632.58
2023-05-14T19:13:50.211Z,100630.96
2023-05-14T19:16:24.448Z,100628.93
2023-05-14T19:18:56.624Z,100626.51
2023-05-14T19:21:29.571Z,100621.86
2023-05-14T19:24:01.651Z,100619.56
2023-05-14T19:26:34.088Z,100613.82
2023-05-14T19:29:07.892Z,100612.59
2023-05-14T19:31:38.231Z,100609.05
2023-05-14T19:34:10.214Z,100604.80
2023-05-14T19:36:42.381Z,100603.92
2023-05-14T19:39:14.810Z,100605.73
2023-05-14T19:41:47.087Z,100606.95
2023-05-14T19:44:19.038Z,100604.45
2023-05-14T19:46:51.075Z,100604.35
2023-05-14T19:49:23.157Z,100603.39
2023-05-14T19:51:55.106Z,100600.61
2023-05-14T19:54:28.208Z,100600.86
2023-05-14T19:57:00.187Z,100600.31
2023-05-14T19:59:32.275Z,100600.41
2023-05-14T20:02:06.033Z,100597.98
2023-05-14T20:04:40.038Z,100595.98
2023-05-14T20:07:12.392Z,100600.23
2023-05-14T20:09:44.559Z,100594.17
2023-05-14T20:12:17.007Z,100589.94
2023-05-14T20:14:51.853Z,100587.36
2023-05-14T20:17:24.960Z,100581.28
2023-05-14T20:19:57.081Z,100582.48
2023-05-14T20:22:29.148Z,100581.56
2023-05-14T20:25:00.970Z,100582.50
2023-05-14T20:27:33.077Z,100585.25
2023-05-14T20:30:05.481Z,100582.27
2023-05-14T20:32:37.691Z,100582.57
2023-05-14T20:35:10.882Z,100576.39
2023-05-14T20:37:42.975Z,100572.59
2023-05-14T20:40:15.236Z,100568.38
2023-05-14T20:42:47.199Z,100566.88
2023-05-14T20:45:19.852Z,100568.11
2023-05-14T20:47:52.775Z,100561.94
2023-05-14T20:50:27.242Z,100555.73
2023-05-14T20:52:59.770Z,100553.66
2023-05-14T20:55:31.866Z,100553.20
2023-05-14T20:58:03.872Z,100545.73
2023-05-14T21:00:37.878Z,100542.16
2023-05-14T21:03:10.453Z,100537.48
2023-05-14T21:05:43.944Z,100532.21
2023-05-14T21:08:16.310Z,100527.52
2023-05-14T21:10:48.685Z,100527.80
2023-05-14T21:13:21.051Z,100527.87
2023-05-14T21:15:52.984Z,100522.16
2023-05-14T21:18:27.382Z,100521.89
2023-05-14T21:20:59.492Z,100518.98
2023-05-14T21:23:32.768Z,100518.95
2023-05-14T21:26:04.938Z,100516.36
2023-05-14T21:28:36.819Z,100516.73
2023-05-14T21:31:09.319Z,100512.60
2023-05-14T21:33:41.528Z,100515.64
2023-05-14T21:36:13.527Z,100513.64
2023-05-14T21:38:45.466Z,100514.79
2023-05-14T21:41:17.293Z,100509.39
2023-05-14T21:43:49.288Z,100511.44
2023-05-14T21:46:21.258Z,100506.68
2023-05-14T21:48:53.586Z,100504.83
2023-05-14T21:51:26.144Z,100505.00
2023-05-14T21:53:58.705Z,100502.02
2023-05-14T21:56:30.723Z,100497.35
2023-05-14T21:59:02.759Z,100491.58
2023-05-14T22:01:38.647Z,100488.79
2023-05-14T22:04:23.095Z,100492.52
2023-05-14T22:06:55.047Z,100492.48
2023-05-14T22:09:27.265Z,100488.50
2023-05-14T22:11:59.358Z,100488.64
2023-05-14T22:14:31.280Z,100485.47
2023-05-14T22:17:03.342Z,100482.16
2023-05-14T22:19:36.465Z,100480.73
2023-05-14T22:22:08.733Z,100478.73
2023-05-14T22:24:40.840Z,100474.14
2023-05-14T22:27:12.853Z,100472.63
2023-05-14T22:29:44.807Z,100468.06
2023-05-14T22:32:16.675Z,100469.78
2023-05-14T22:34:48.933Z,100468.33
2023-05-14T22:37:21.522Z,100460.92
2023-05-14T22:39:53.379Z,100455.05
2023-05-14T22:42:26.736Z,100458.27
2023-05-14T22:44:58.630Z,100451.70
2023-05-14T22:47:31.004Z,100446.96
2023-05-14T22:50:02.999Z,100447.00
2023-05-14T22:52:35.346Z,100443.52
2023-05-14T22:55:08.571Z,100442.91
2023-05-14T22:57:40.908Z,100436.58
2023-05-14T23:00:14.901Z,100437.19
2023-05-14T23:02:47.131Z,100430.73
2023-05-14T23:05:19.366Z,100425.44
2023-05-14T23:07:51.341Z,100424.31
2023-05-14T23:10:23.194Z,100418.27
2023-05-14T23:12:55.095Z,100417.31
2023-05-14T23:15:27.217Z,100415.33
2023-05-14T23:17:59.433Z,100409.45
2023-05-14T23:20:31.357Z,100411.58
2023-05-14T23:23:03.381Z,100407.30
2023-05-14T23:25:35.909Z,100401.80
2023-05-14T23:28:07.960Z,100397.47
2023-05-14T23:30:39.959Z,100397.02
2023-05-14T23:33:12.094Z,100394.75
2023-05-14T23:35:44.260Z,100387.77
2023-05-14T23:38:16.248Z,100384.39
2023-05-14T23:40:48.186Z,100382.10
2023-05-14T23:43:20.662Z,100376.71
2023-05-14T23:45:52.641Z,100376.27
2023-05-14T23:48:24.938Z,100372.30
2023-05-14T23:50:56.627Z,100373.31
2023-05-14T23:53:28.728Z,100371.50
2023-05-14T23:56:00.514Z,100371.23
2023-05-14T23:58:33.060Z,100363.21
